AirNav   Air Wisconsin Up To $57,000 Bonus
 
 1365 users online  

CT73 South Meadows Heliport
Hartford, Connecticut, USA

GOING TO HARTFORD?


FAA INFORMATION EFFECTIVE 02 JANUARY 2020

Location

FAA Identifier: CT73
Lat/Long: 41-43-23.3600N 072-51-36.3600W
41-43.389333N 072-51.606000W
41.7231556,-72.8601000
(estimated)
Elevation: 200 ft. / 61 m (estimated)
Variation: 14W (1995)
From city: 10 miles W of HARTFORD, CT
Time zone: UTC -5 (UTC -4 during Daylight Saving Time)
Zip code: 06032

Heliport Operations

Heliport use: Private use. Permission required prior to landing
Activation date: 01/1998
Control tower: no
ARTCC: BOSTON CENTER
FSS: BRIDGEPORT FLIGHT SERVICE STATION
Attendance: UNATNDD
Segmented circle: no

Heliport Communications

WX AWOS-AV at CT71 (2.7 nm E): 129.825
WX ASOS at HFD (9 nm E): PHONE 860-527-5837
WX ASOS at MMK (13 nm S): 134.925 (203-639-9405)
WX ASOS at BDL (15 nm NE): PHONE 860-386-3480
WX AWOS-3PT at OXC (19 nm SW): 132.975 (203-262-1190)

Nearby radio navigation aids

VOR radial/distance  VOR name  Freq  Var
HFDr302/14.9HARTFORD VOR/DME114.9013W
MADr356/25.7MADISON VOR/DME110.4013W
BAFr208/27.1BARNES VORTAC113.0014W
PWLr107/33.3PAWLING VOR/DME114.3012W
CTRr186/34.3CHESTER VOR/DME115.1013W
BDRr031/35.8BRIDGEPORT VOR/DME108.8012W
ORWr299/39.9NORWICH VOR/DME110.0014W

 
NDB name  Hdg/Dist  Freq  Var  ID
GREAT BARRINGTON153/36.739514WGBR --. -... .-.

Heliport Services

Runway Information

Helipad H1

Dimensions: 50 x 50 ft. / 15 x 15 m
Surface: turf
Traffic pattern: leftleft

Heliport Ownership and Management from official FAA records

Ownership: Privately-owned
Owner: SOUTH MEADOWS
40 MEADOW LANE
FARMINGTON, CT 06032
Phone 860-677-5930
Manager: KATHERINE E. WADSWORTH
40 MEADOW LANE
FARMINGTON, CT 06032
Phone 860-677-5930
BILL WADSWORT, 73 RED OAK HILL RD, FARMINGTON, CT 00032, 860-677-2784.

Additional Remarks

BALLOON ACTIVITY AT HELIPORT.
FOR CD CTC YANKEE APCH AT 860-386-3597

Instrument Procedures

There are no published instrument procedures at CT73.

Some nearby airports with instrument procedures:

4B8 - Robertson Field Airport (2 nm S)
KHFD - Hartford-Brainard Airport (9 nm E)
KMMK - Meriden Markham Municipal Airport (13 nm S)
KBDL - Bradley International Airport (15 nm NE)
KOXC - Waterbury-Oxford Airport (19 nm SW)
 
Loc | Ops | Rwys | IFR | FBO | Links
Com | Nav | Svcs | Stats | Notes

Silver City Flying Club
 
Area around CT73 (South Meadows Heliport)
 
Road maps at: MapQuest Bing Google
 
Aerial photo
No photo
 
Sectional chart

 
Airport distance calculator
Flying to South Meadows Heliport? Find the distance to fly.

From to CT73

Sunrise and sunset
Times for 20-Jan-2020
 Local
(UTC-5)
 Zulu
(UTC)
Morning civil twilight06:4411:44
Sunrise07:1512:15
Sunset16:5021:50
Evening civil twilight17:2122:21

Current date and time
Zulu (UTC)  20-Jan-2020 21:45:11
Local (UTC-5)  20-Jan-2020 16:45:11
 
METAR
KHFD 
9nm E 
202053Z 33010G18KT 10SM CLR M02/M17 A3026 RMK AO2 SLP248 T10221172 53008
KMMK 
12nm S 
202053Z AUTO 33009G18KT 10SM CLR M03/M18 A3026 RMK AO2 SLP249 T10281183 53008
KBDL 
15nm NE 
202051Z 33010KT 10SM CLR M03/M17 A3025 RMK AO2 SLP247 T10331172 53008
KOXC 
19nm SW 
202051Z 33010G18KT 10SM CLR M04/M18 A3023 RMK AO2 SLP262 T10441183 53008
TAF
KBDL 
15nm NE 
201721Z 2018/2124 34012G20KT P6SM SKC FM202000 33010KT P6SM SKC FM210000 33006KT P6SM SKC FM211200 34003KT P6SM FEW250
NOTAMs
Click for the latest NOTAMs
NOTAMs are issued by the DoD/FAA and will open in a separate window not controlled by AirNav.

 

 
 

Would you like to see your business listed on this page?

 If your business provides an interesting product or service to pilots, flight crews, aircraft, or users of the South Meadows Heliport, you should consider listing it here.  To start the listing process, click on the button below
 
Add a business
 

Other Pages about South Meadows Heliport

Update a link
 
Copyright © AirNav, LLC. All rights reserved. Privacy Policy  Contact